createdAt,value
2018-02-08T00:00:36.282Z,26.87
2018-02-08T00:03:04.647Z,25.87
2018-02-08T00:05:32.809Z,27.23
2018-02-08T00:08:01.066Z,26.93
2018-02-08T00:10:29.325Z,26.93
2018-02-08T00:12:57.667Z,25.10
2018-02-08T00:15:25.788Z,27.40
2018-02-08T00:17:54.040Z,27.30
2018-02-08T00:20:22.222Z,26.40
2018-02-08T00:22:50.342Z,26.37
2018-02-08T00:25:18.526Z,27.47
2018-02-08T00:27:47.480Z,26.43
2018-02-08T00:30:15.606Z,26.43
2018-02-08T00:32:43.720Z,25.47
2018-02-08T00:35:11.852Z,25.13
2018-02-08T00:37:40.718Z,26.23
2018-02-08T00:40:09.612Z,27.13
2018-02-08T00:42:37.862Z,26.80
2018-02-08T00:45:05.976Z,26.87
2018-02-08T00:47:34.860Z,25.37
2018-02-08T00:50:03.349Z,25.73
2018-02-08T00:52:32.358Z,25.40
2018-02-08T00:55:00.673Z,27.97
2018-02-08T00:57:28.902Z,27.00
2018-02-08T00:59:57.166Z,24.97
2018-02-08T01:02:25.294Z,25.17
2018-02-08T01:04:53.391Z,25.93
2018-02-08T01:07:21.938Z,27.57
2018-02-08T01:09:50.109Z,27.07
2018-02-08T01:12:18.305Z,26.83
2018-02-08T01:14:46.431Z,29.03
2018-02-08T01:17:14.591Z,27.17
2018-02-08T01:19:42.695Z,27.33
2018-02-08T01:22:10.840Z,28.20
2018-02-08T01:24:39.024Z,26.27
2018-02-08T01:27:07.152Z,25.47
2018-02-08T01:29:35.411Z,27.33
2018-02-08T01:32:03.512Z,26.27
2018-02-08T01:34:31.685Z,27.87
2018-02-08T01:37:00.568Z,27.17
2018-02-08T01:39:28.688Z,26.80
2018-02-08T01:42:06.039Z,29.47
2018-02-08T01:44:39.080Z,27.33
2018-02-08T01:47:10.511Z,28.27
2018-02-08T02:05:50.780Z,25.97
2018-02-08T02:08:19.012Z,29.47
2018-02-08T02:10:48.123Z,28.80
2018-02-08T02:13:17.343Z,27.83
2018-02-08T02:15:55.392Z,28.33
2018-02-08T02:18:30.587Z,28.87
2018-02-08T02:21:07.455Z,30.47
2018-02-08T02:23:36.202Z,30.23
2018-02-08T02:26:04.311Z,29.07
2018-02-08T02:28:32.450Z,28.80
2018-02-08T02:31:00.602Z,29.87
2018-02-08T02:33:28.736Z,28.87
2018-02-08T02:35:56.883Z,29.90
2018-02-08T02:38:25.021Z,30.03
2018-02-08T02:40:53.127Z,27.93
2018-02-08T02:43:21.250Z,28.90
2018-02-08T02:45:49.354Z,30.97
2018-02-08T02:48:17.463Z,28.20
2018-02-08T02:50:45.584Z,30.33
2018-02-08T02:53:13.688Z,30.57
2018-02-08T02:55:41.785Z,28.70
2018-02-08T02:58:10.772Z,28.47
2018-02-08T03:00:39.632Z,30.23
2018-02-08T03:03:07.754Z,29.80
2018-02-08T03:05:36.582Z,29.53
2018-02-08T03:08:04.694Z,29.63
2018-02-08T03:10:33.572Z,29.90
2018-02-08T03:13:01.703Z,28.90
2018-02-08T03:15:29.842Z,29.10
2018-02-08T03:17:58.621Z,28.67
2018-02-08T03:20:26.743Z,29.97
2018-02-08T03:22:54.874Z,28.97
2018-02-08T03:25:22.982Z,29.17
2018-02-08T03:27:51.712Z,28.77
2018-02-08T03:30:32.295Z,31.20
2018-02-08T03:33:01.172Z,30.33
2018-02-08T03:35:29.304Z,29.60
2018-02-08T03:37:57.407Z,30.57
2018-02-08T03:40:25.540Z,28.67
2018-02-08T03:42:53.638Z,30.03
2018-02-08T03:45:21.761Z,29.17
2018-02-08T03:47:49.889Z,29.50
2018-02-08T03:50:18.091Z,28.97
2018-02-08T03:52:46.979Z,30.13
2018-02-08T03:55:15.091Z,27.90
2018-02-08T03:57:43.933Z,31.43
2018-02-08T04:00:12.050Z,29.97
2018-02-08T04:02:40.147Z,29.13
2018-02-08T04:05:08.263Z,29.27
2018-02-08T04:07:36.403Z,33.23
2018-02-08T04:10:04.517Z,30.73
2018-02-08T04:12:32.615Z,30.87
2018-02-08T04:15:00.841Z,32.20
2018-02-08T04:17:29.737Z,31.63
2018-02-08T04:19:57.835Z,29.97
2018-02-08T04:22:25.959Z,31.10
2018-02-08T04:24:54.076Z,31.33
2018-02-08T04:27:22.191Z,31.40
2018-02-08T04:29:50.359Z,31.67
2018-02-08T04:32:18.536Z,30.47
2018-02-08T04:34:46.674Z,32.23
2018-02-08T04:37:15.418Z,31.47
2018-02-08T04:40:01.286Z,30.13
2018-02-08T04:42:41.115Z,31.13
2018-02-08T04:45:26.926Z,31.83
2018-02-08T04:48:13.722Z,30.70
2018-02-08T04:50:41.834Z,32.57
2018-02-08T04:53:10.773Z,31.37
2018-02-08T04:55:38.960Z,30.20
2018-02-08T04:58:07.484Z,31.87
2018-02-08T05:00:36.358Z,30.70
2018-02-08T05:03:04.875Z,29.73
2018-02-08T05:05:33.021Z,32.97
2018-02-08T05:08:01.261Z,31.77
2018-02-08T05:10:29.385Z,29.57
2018-02-08T05:12:57.495Z,32.43
2018-02-08T05:15:26.220Z,31.07
2018-02-08T05:17:54.383Z,30.30
2018-02-08T05:20:22.533Z,28.50
2018-02-08T05:22:50.699Z,30.50
2018-02-08T05:25:18.817Z,29.40
2018-02-08T05:27:46.970Z,30.97
2018-02-08T05:30:15.685Z,29.73
2018-02-08T05:32:43.829Z,31.63
2018-02-08T05:35:12.065Z,30.30
2018-02-08T05:37:40.294Z,30.87
2018-02-08T05:53:03.428Z,28.70
2018-02-08T05:55:31.528Z,31.13
2018-02-08T05:57:59.637Z,30.33
2018-02-08T06:00:27.752Z,29.83
2018-02-08T06:02:55.896Z,29.07
2018-02-08T06:05:24.006Z,31.47
2018-02-08T06:07:52.139Z,31.17
2018-02-08T06:10:21.082Z,31.53
2018-02-08T06:12:50.005Z,32.67
2018-02-08T06:15:18.108Z,33.87
2018-02-08T06:17:46.222Z,30.90
2018-02-08T06:20:14.318Z,33.10
2018-02-08T06:22:42.635Z,31.17
2018-02-08T06:25:10.786Z,30.20
2018-02-08T06:27:38.867Z,30.97
2018-02-08T06:30:06.973Z,31.97
2018-02-08T06:32:35.223Z,29.13
2018-02-08T06:35:03.339Z,30.97
2018-02-08T06:37:32.285Z,31.63
2018-02-08T06:40:00.421Z,32.47
2018-02-08T06:42:28.547Z,32.00
2018-02-08T06:44:57.289Z,31.67
2018-02-08T06:47:25.401Z,31.77
2018-02-08T06:49:53.551Z,30.93
2018-02-08T06:52:21.837Z,33.57
2018-02-08T06:54:50.139Z,31.70
2018-02-08T06:57:18.353Z,31.50
2018-02-08T06:59:46.613Z,33.07
2018-02-08T07:02:14.828Z,30.00
2018-02-08T07:04:43.093Z,32.50
2018-02-08T07:07:11.256Z,31.57
2018-02-08T07:09:39.643Z,29.73
2018-02-08T07:12:07.848Z,30.37
2018-02-08T07:14:36.077Z,30.80
2018-02-08T07:17:04.308Z,33.17
2018-02-08T07:19:32.533Z,31.43
2018-02-08T07:22:00.770Z,32.57
2018-02-08T07:24:28.947Z,32.00
2018-02-08T07:26:58.466Z,32.37
2018-02-08T07:29:26.568Z,31.20
2018-02-08T07:31:54.810Z,31.97
2018-02-08T07:34:22.999Z,29.73
2018-02-08T07:36:51.276Z,31.50
2018-02-08T07:39:19.509Z,30.23
2018-02-08T07:41:48.114Z,30.00
2018-02-08T07:44:16.975Z,32.03
2018-02-08T07:46:45.096Z,31.87
2018-02-08T07:49:13.208Z,31.27
2018-02-08T07:51:41.338Z,30.57
2018-02-08T07:54:09.441Z,30.20
2018-02-08T07:56:37.553Z,28.30
2018-02-08T07:59:05.645Z,29.53
2018-02-08T08:01:34.529Z,30.60
2018-02-08T08:04:02.619Z,31.07
2018-02-08T08:06:30.767Z,29.37
2018-02-08T08:08:58.985Z,30.23
2018-02-08T08:11:27.085Z,30.10
2018-02-08T08:13:55.202Z,30.70
2018-02-08T08:16:23.306Z,31.43
2018-02-08T08:18:51.415Z,29.37
2018-02-08T08:21:19.519Z,29.03
2018-02-08T08:23:47.637Z,29.30
2018-02-08T08:26:15.733Z,30.07
2018-02-08T08:28:43.839Z,29.87
2018-02-08T08:31:11.947Z,30.57
2018-02-08T08:33:40.058Z,30.03
2018-02-08T08:36:08.225Z,30.50
2018-02-08T08:38:36.449Z,29.30
2018-02-08T08:41:04.622Z,31.37
2018-02-08T08:43:32.748Z,30.97
2018-02-08T08:46:00.852Z,29.17
2018-02-08T08:48:29.718Z,29.07
2018-02-08T08:50:57.854Z,31.07
2018-02-08T08:53:26.026Z,30.20
2018-02-08T08:55:54.202Z,29.83
2018-02-08T08:58:22.368Z,31.93
2018-02-08T09:00:50.462Z,30.63
2018-02-08T09:03:18.572Z,28.93
2018-02-08T09:05:46.663Z,29.73
2018-02-08T09:08:14.786Z,29.63
2018-02-08T09:10:42.908Z,28.73
2018-02-08T09:13:10.996Z,28.70
2018-02-08T09:15:39.193Z,28.73
2018-02-08T09:18:07.339Z,29.30
2018-02-08T09:20:35.462Z,28.57
2018-02-08T09:23:04.316Z,29.27
2018-02-08T09:25:32.426Z,29.53
2018-02-08T09:28:01.337Z,29.10
2018-02-08T09:30:29.480Z,32.10
2018-02-08T09:32:57.586Z,30.73
2018-02-08T09:35:25.704Z,27.50
2018-02-08T09:37:53.802Z,29.37
2018-02-08T09:40:21.919Z,28.93
2018-02-08T09:42:50.015Z,28.87
2018-02-08T09:45:18.145Z,29.57
2018-02-08T09:47:46.497Z,29.43
2018-02-08T09:50:14.688Z,29.70
2018-02-08T09:52:42.881Z,28.53
2018-02-08T09:55:11.017Z,28.23
2018-02-08T09:57:39.115Z,29.43
2018-02-08T10:00:07.226Z,28.40
2018-02-08T10:02:35.342Z,30.03
2018-02-08T10:05:04.255Z,29.60
2018-02-08T10:07:32.369Z,28.57
2018-02-08T10:10:00.468Z,27.83
2018-02-08T10:12:28.580Z,30.30
2018-02-08T10:14:56.698Z,28.87
2018-02-08T10:17:24.804Z,29.60
2018-02-08T10:19:52.888Z,28.60
2018-02-08T10:22:21.024Z,26.90
2018-02-08T10:24:49.172Z,27.83
2018-02-08T10:27:17.352Z,28.97
2018-02-08T10:29:45.574Z,29.50
2018-02-08T10:32:14.438Z,27.73
2018-02-08T10:34:42.542Z,29.10
2018-02-08T10:37:10.650Z,30.70
2018-02-08T10:39:38.792Z,29.33
2018-02-08T10:42:06.969Z,29.37
2018-02-08T10:44:35.128Z,28.07
2018-02-08T10:47:03.289Z,28.70
2018-02-08T10:49:31.384Z,29.27
2018-02-08T10:51:59.486Z,38.88
2018-02-08T10:54:27.595Z,31.80
2018-02-08T10:56:55.695Z,29.90
2018-02-08T10:59:23.797Z,29.23
2018-02-08T11:01:51.937Z,29.23
2018-02-08T11:04:20.885Z,29.70
2018-02-08T11:06:48.989Z,27.63
2018-02-08T11:09:17.081Z,28.37
2018-02-08T11:11:45.202Z,27.57
2018-02-08T11:14:13.313Z,27.33
2018-02-08T11:16:42.173Z,26.97
2018-02-08T11:19:10.291Z,28.57
2018-02-08T11:21:38.421Z,28.40
2018-02-08T11:24:06.531Z,28.97
2018-02-08T11:26:34.635Z,28.07
2018-02-08T11:29:02.740Z,28.30
2018-02-08T11:31:30.963Z,29.10
2018-02-08T11:33:59.092Z,27.60
2018-02-08T11:36:27.299Z,27.47
2018-02-08T11:38:55.498Z,28.43
2018-02-08T11:41:23.622Z,27.47
2018-02-08T11:43:51.716Z,26.40
2018-02-08T11:46:19.839Z,28.63
2018-02-08T11:48:47.948Z,25.87
2018-02-08T11:51:16.820Z,27.60
2018-02-08T11:53:44.928Z,28.10
2018-02-08T11:56:13.022Z,27.47
2018-02-08T11:58:41.128Z,28.73
2018-02-08T12:01:09.278Z,28.03
2018-02-08T12:03:37.343Z,27.83
2018-02-08T12:06:05.456Z,27.33
2018-02-08T12:08:33.627Z,29.43
2018-02-08T12:11:01.757Z,27.50
2018-02-08T12:13:29.903Z,28.57
2018-02-08T12:15:57.995Z,28.97
2018-02-08T12:18:26.110Z,27.53
2018-02-08T12:20:54.208Z,27.73
2018-02-08T12:23:22.304Z,28.10
2018-02-08T12:25:50.482Z,29.37
2018-02-08T12:28:18.591Z,30.90
2018-02-08T12:30:46.686Z,28.87
2018-02-08T12:33:14.791Z,28.70
2018-02-08T12:35:42.901Z,31.37
2018-02-08T12:38:10.997Z,29.70
2018-02-08T12:40:39.222Z,30.93
2018-02-08T12:43:07.317Z,32.37
2018-02-08T12:45:36.431Z,29.63
2018-02-08T12:48:04.546Z,29.70
2018-02-08T12:50:32.776Z,30.20
2018-02-08T12:53:00.955Z,30.73
2018-02-08T12:55:29.061Z,30.17
2018-02-08T12:57:57.255Z,29.57
2018-02-08T13:00:25.494Z,30.57
2018-02-08T13:02:54.348Z,30.47
2018-02-08T13:05:22.452Z,30.57
2018-02-08T13:07:51.360Z,29.80
2018-02-08T13:10:19.526Z,31.20
2018-02-08T13:12:47.698Z,30.90
2018-02-08T13:15:16.556Z,29.50
2018-02-08T13:17:44.658Z,32.47
2018-02-08T13:20:13.545Z,29.87
2018-02-08T13:22:42.424Z,30.63
2018-02-08T13:25:10.520Z,28.07
2018-02-08T13:27:38.643Z,29.10
2018-02-08T13:30:06.822Z,28.03
2018-02-08T13:32:34.926Z,28.17
2018-02-08T13:35:03.039Z,27.43
2018-02-08T13:37:31.183Z,27.83
2018-02-08T13:43:05.157Z,29.10
2018-02-08T13:45:33.267Z,28.87
2018-02-08T13:48:01.459Z,29.77
2018-02-08T13:50:34.080Z,28.57
2018-02-08T13:53:07.661Z,29.17
2018-02-08T13:55:41.173Z,29.93
2018-02-08T13:58:10.148Z,28.90
2018-02-08T14:00:40.819Z,30.83
2018-02-08T14:03:08.935Z,28.80
2018-02-08T14:05:37.821Z,31.70
2018-02-08T14:08:05.947Z,31.03
2018-02-08T14:10:34.269Z,29.20
2018-02-08T14:13:02.420Z,29.93
2018-02-08T14:15:30.542Z,30.27
2018-02-08T14:17:58.750Z,32.07
2018-02-08T14:20:27.218Z,32.40
2018-02-08T14:22:55.484Z,29.63
2018-02-08T14:25:23.716Z,30.20
2018-02-08T14:27:51.944Z,31.20
2018-02-08T14:30:20.197Z,29.30
2018-02-08T14:32:48.376Z,29.67
2018-02-08T14:35:16.502Z,28.70
2018-02-08T14:37:44.598Z,31.03
2018-02-08T14:40:12.744Z,31.97
2018-02-08T14:42:40.876Z,31.93
2018-02-08T14:45:08.984Z,31.83
2018-02-08T14:47:37.091Z,32.63
2018-02-08T14:50:05.239Z,32.13
2018-02-08T14:52:33.468Z,29.93
2018-02-08T14:55:01.659Z,31.93
2018-02-08T14:57:29.906Z,32.37
2018-02-08T14:59:58.005Z,30.77
2018-02-08T15:02:26.114Z,32.83
2018-02-08T15:04:54.935Z,35.20
2018-02-08T15:07:23.045Z,33.63
2018-02-08T15:09:51.164Z,32.17
2018-02-08T15:12:19.451Z,32.33
2018-02-08T15:14:47.577Z,32.80
2018-02-08T15:17:15.719Z,33.13
2018-02-08T15:19:43.833Z,35.13
2018-02-08T15:22:11.951Z,34.23
2018-02-08T15:24:40.072Z,32.13
2018-02-08T15:27:08.191Z,34.93
2018-02-08T15:29:36.295Z,33.50
2018-02-08T15:32:04.432Z,33.87
2018-02-08T15:34:32.688Z,33.33
2018-02-08T15:37:01.553Z,34.00
2018-02-08T15:39:29.660Z,33.03
2018-02-08T15:41:57.775Z,33.30
2018-02-08T15:44:25.867Z,33.30
2018-02-08T15:46:53.983Z,33.57
2018-02-08T15:49:22.195Z,34.77
2018-02-08T15:51:50.424Z,32.57
2018-02-08T15:54:18.662Z,32.63
2018-02-08T15:56:46.906Z,34.20
2018-02-08T15:59:15.144Z,34.63
2018-02-08T16:01:43.382Z,35.23
2018-02-08T16:04:11.952Z,31.97
2018-02-08T16:06:40.065Z,33.93
2018-02-08T16:09:08.663Z,34.63
2018-02-08T16:11:36.752Z,34.63
2018-02-08T16:14:04.855Z,34.60
2018-02-08T16:16:32.959Z,33.60
2018-02-08T16:19:01.064Z,35.43
2018-02-08T16:21:29.184Z,37.23
2018-02-08T16:23:57.295Z,35.30
2018-02-08T16:26:25.389Z,36.80
2018-02-08T16:28:53.546Z,35.10
2018-02-08T16:31:22.406Z,34.83
2018-02-08T16:33:50.931Z,36.53
2018-02-08T16:36:19.028Z,36.93
2018-02-08T16:38:47.117Z,35.70
2018-02-08T16:41:15.231Z,35.07
2018-02-08T16:43:43.393Z,36.47
2018-02-08T16:46:11.509Z,38.30
2018-02-08T16:48:39.605Z,34.93
2018-02-08T16:51:07.724Z,38.17
2018-02-08T16:53:35.829Z,33.40
2018-02-08T16:56:03.938Z,31.03
2018-02-08T16:58:32.175Z,33.60
2018-02-08T17:01:00.312Z,33.70
2018-02-08T17:03:28.463Z,32.90
2018-02-08T17:05:56.572Z,34.47
2018-02-08T17:08:24.704Z,33.70
2018-02-08T17:10:52.817Z,35.83
2018-02-08T17:13:20.918Z,35.60
2018-02-08T17:15:49.043Z,35.07
2018-02-08T17:18:17.226Z,35.57
2018-02-08T17:20:45.379Z,34.00
2018-02-08T17:23:13.608Z,33.60
2018-02-08T17:25:41.884Z,33.70
2018-02-08T17:28:10.160Z,34.03
2018-02-08T17:30:38.313Z,32.97
2018-02-08T17:33:06.568Z,33.23
2018-02-08T17:35:34.808Z,33.50
2018-02-08T17:38:03.033Z,33.77
2018-02-08T17:40:31.140Z,33.87
2018-02-08T17:42:59.285Z,34.57
2018-02-08T17:45:28.039Z,34.20
2018-02-08T17:47:56.919Z,34.67
2018-02-08T17:50:25.025Z,35.13
2018-02-08T17:52:53.115Z,34.30
2018-02-08T17:55:21.221Z,34.83
2018-02-08T17:57:49.318Z,37.37
2018-02-08T18:00:17.508Z,34.73
2018-02-08T18:02:52.803Z,36.70
2018-02-08T18:05:21.321Z,32.73
2018-02-08T18:07:49.433Z,35.00
2018-02-08T18:10:17.549Z,34.73
2018-02-08T18:12:45.648Z,34.60
2018-02-08T18:15:13.756Z,34.77
2018-02-08T18:17:41.865Z,35.57
2018-02-08T18:20:10.128Z,37.40
2018-02-08T18:22:38.375Z,36.13
2018-02-08T18:25:06.616Z,36.70
2018-02-08T18:27:35.485Z,35.97
2018-02-08T18:30:03.597Z,36.83
2018-02-08T18:32:31.916Z,39.40
2018-02-08T18:35:00.033Z,36.30
2018-02-08T18:37:28.140Z,36.60
2018-02-08T18:39:56.251Z,36.13
2018-02-08T18:42:24.366Z,38.50
2018-02-08T18:44:52.456Z,37.80
2018-02-08T18:47:20.550Z,38.87
2018-02-08T18:49:48.816Z,37.07
2018-02-08T18:52:16.932Z,38.87
2018-02-08T18:54:45.045Z,35.83
2018-02-08T18:57:13.168Z,36.93
2018-02-08T18:59:41.278Z,36.17
2018-02-08T19:02:09.550Z,36.07
2018-02-08T19:04:37.738Z,35.70
2018-02-08T19:07:05.876Z,38.93
2018-02-08T19:09:34.185Z,36.50
2018-02-08T19:12:03.020Z,35.63
2018-02-08T19:14:31.109Z,37.87
2018-02-08T19:16:59.229Z,37.40
2018-02-08T19:19:27.343Z,38.10
2018-02-08T19:21:55.432Z,38.00
2018-02-08T19:24:23.700Z,37.67
2018-02-08T19:26:51.842Z,36.73
2018-02-08T19:29:20.031Z,39.43
2018-02-08T19:31:48.149Z,36.83
2018-02-08T19:34:16.267Z,38.07
2018-02-08T19:36:44.363Z,38.03
2018-02-08T19:39:13.242Z,37.93
2018-02-08T19:41:41.503Z,39.60
2018-02-08T19:44:10.909Z,37.97
2018-02-08T19:46:39.002Z,38.87
2018-02-08T19:49:07.115Z,36.63
2018-02-08T19:51:35.256Z,36.70
2018-02-08T19:54:03.487Z,36.77
2018-02-08T19:56:31.771Z,38.37
2018-02-08T19:59:00.033Z,38.00
2018-02-08T20:01:28.258Z,36.87
2018-02-08T20:03:56.470Z,38.80
2018-02-08T20:06:25.298Z,37.90
2018-02-08T20:08:53.398Z,38.40
2018-02-08T20:11:22.374Z,38.40
2018-02-08T20:13:50.509Z,38.47
2018-02-08T20:16:18.682Z,38.90
2018-02-08T20:18:46.761Z,38.93
2018-02-08T20:21:14.860Z,38.40
2018-02-08T20:23:43.050Z,38.33
2018-02-08T20:26:11.916Z,38.73
2018-02-08T20:28:40.132Z,37.37
2018-02-08T20:31:10.157Z,37.17
2018-02-08T20:33:38.356Z,35.27
2018-02-08T20:36:06.511Z,34.37
2018-02-08T20:38:34.620Z,35.10
2018-02-08T20:41:02.816Z,37.73
2018-02-08T20:43:30.952Z,36.70
2018-02-08T20:45:59.071Z,37.80
2018-02-08T20:48:27.187Z,38.03
2018-02-08T20:50:55.327Z,37.33
2018-02-08T20:53:23.429Z,39.73
2018-02-08T20:55:51.551Z,39.30
2018-02-08T20:58:19.671Z,39.07
2018-02-08T21:00:47.797Z,38.40
2018-02-08T21:03:15.910Z,37.27
2018-02-08T21:05:44.036Z,36.97
2018-02-08T21:08:12.119Z,34.87
2018-02-08T21:10:40.314Z,36.70
2018-02-08T21:13:08.407Z,36.93
2018-02-08T21:15:36.523Z,35.97
2018-02-08T21:18:04.652Z,35.90
2018-02-08T21:20:32.752Z,35.63
2018-02-08T21:35:56.450Z,36.03
2018-02-08T21:38:24.686Z,36.37
2018-02-08T21:40:53.252Z,36.40
2018-02-08T21:43:21.414Z,35.73
2018-02-08T21:45:49.553Z,35.10
2018-02-08T21:48:17.682Z,35.53
2018-02-08T21:50:45.805Z,36.77
2018-02-08T21:53:13.909Z,36.70
2018-02-08T21:55:42.013Z,37.30
2018-02-08T21:58:10.127Z,36.97
2018-02-08T22:00:38.271Z,35.03
2018-02-08T22:03:06.479Z,38.67
2018-02-08T22:05:34.609Z,37.07
2018-02-08T22:08:02.734Z,37.67
2018-02-08T22:10:30.867Z,38.40
2018-02-08T22:12:59.843Z,37.13
2018-02-08T22:15:27.960Z,37.80
2018-02-08T22:17:56.119Z,38.40
2018-02-08T22:20:24.979Z,36.33
2018-02-08T22:22:53.105Z,35.67
2018-02-08T22:25:21.257Z,37.63
2018-02-08T22:27:49.372Z,38.67
2018-02-08T22:30:17.500Z,38.17
2018-02-08T22:32:45.604Z,35.93
2018-02-08T22:35:13.715Z,36.67
2018-02-08T22:37:41.833Z,35.90
2018-02-08T22:40:10.002Z,38.10
2018-02-08T22:42:38.121Z,37.00
2018-02-08T22:45:06.232Z,34.03
2018-02-08T22:47:34.344Z,36.23
2018-02-08T22:50:02.468Z,35.23
2018-02-08T22:52:31.348Z,37.73
2018-02-08T22:54:59.511Z,37.13
2018-02-08T22:57:27.615Z,37.07
2018-02-08T22:59:55.730Z,35.70
2018-02-08T23:02:23.899Z,38.97
2018-02-08T23:04:52.061Z,38.27
2018-02-08T23:07:20.190Z,36.90
2018-02-08T23:09:48.340Z,35.13
2018-02-08T23:12:16.446Z,34.00
2018-02-08T23:14:44.920Z,35.53
2018-02-08T23:17:13.022Z,36.30
2018-02-08T23:19:41.123Z,37.33
2018-02-08T23:22:09.253Z,38.27
2018-02-08T23:24:37.437Z,35.27
2018-02-08T23:27:05.558Z,37.00
2018-02-08T23:29:33.678Z,37.10
2018-02-08T23:32:01.797Z,34.13
2018-02-08T23:34:29.907Z,36.97
2018-02-08T23:36:58.037Z,35.70
2018-02-08T23:39:26.181Z,35.63
2018-02-08T23:41:54.622Z,35.00
2018-02-08T23:44:22.721Z,37.17
2018-02-08T23:46:50.891Z,37.10
2018-02-08T23:49:19.082Z,38.20
2018-02-08T23:51:47.186Z,35.27
2018-02-08T23:54:15.329Z,34.97
2018-02-08T23:56:43.427Z,34.30
2018-02-08T23:59:11.554Z,33.47
